Time;durP1;ratioP1;P1;durP2;ratioP2;P2;SDS_P1;SDS_P2;PMS_P1;PMS_P2;Temp;Humidity;BMP_temperature;BMP_pressure;BME280_temperature;BME280_humidity;BME280_pressure;Samples;Min_cycle;Max_cycle;Signal;HPM_P1;HPM_P2
2022/07/01 00:00:28;;;;;;;;;;;16.20;84.90;;;;;;5065071;28;19974;-80
2022/07/01 00:02:54;;;;;;;;;;;16.20;84.60;;;;;;5060748;28;19913;-81
2022/07/01 00:05:20;;;;;;;;;;;16.20;84.40;;;;;;5069638;28;19939;-80
2022/07/01 00:07:46;;;;;;;;;;;16.20;85.00;;;;;;5056612;28;19936;-81
2022/07/01 00:10:12;;;;;;;;;;;16.30;85.30;;;;;;5049698;28;19913;-81
2022/07/01 00:12:37;;;;;;;;;;;16.30;84.30;;;;;;5051464;28;19921;-80
2022/07/01 00:15:03;;;;;;;;;;;16.20;85.00;;;;;;5049159;28;19920;-80
2022/07/01 00:17:29;;;;;;;;;;;16.20;85.40;;;;;;5052905;28;19939;-80
2022/07/01 00:19:55;;;;;;;;;;;16.20;85.10;;;;;;5044333;28;19913;-80
2022/07/01 00:22:20;;;;;;;;;;;16.20;84.90;;;;;;5050292;28;20300;-82
2022/07/01 00:24:48;;;;;;;;;;;16.20;84.50;;;;;;5053551;28;19921;-81
2022/07/01 00:27:15;;;;;;;;;;;16.20;84.20;;;;;;5053933;28;20272;-81
2022/07/01 00:29:40;;;;;;;;;;;16.20;84.50;;;;;;5068855;28;19932;-80
2022/07/01 00:32:06;;;;;;;;;;;16.20;84.00;;;;;;5053728;28;19959;-80
2022/07/01 00:34:32;;;;;;;;;;;16.10;83.90;;;;;;5047121;28;19999;-81
2022/07/01 00:36:57;;;;;;;;;;;16.10;84.80;;;;;;5070754;22;20447;-83
2022/07/01 00:39:23;;;;;;;;;;;16.20;84.50;;;;;;5051310;28;19917;-83
2022/07/01 00:41:48;;;;;;;;;;;16.30;85.00;;;;;;5032257;28;20387;-84
2022/07/01 00:44:20;;;;;;;;;;;16.40;83.70;;;;;;5035754;28;19929;-83
2022/07/01 00:46:48;;;;;;;;;;;16.30;83.50;;;;;;5040655;28;19971;-83
2022/07/01 00:49:13;;;;;;;;;;;16.30;83.80;;;;;;5030917;28;19913;-83
2022/07/01 00:51:39;;;;;;;;;;;16.30;83.90;;;;;;5008796;28;19967;-83
2022/07/01 00:54:04;;;;;;;;;;;16.40;83.40;;;;;;5032185;28;19913;-83
2022/07/01 00:56:29;;;;;;;;;;;16.40;82.60;;;;;;5013250;28;20387;-83
2022/07/01 00:58:55;;;;;;;;;;;16.30;83.30;;;;;;5034752;28;19909;-83
2022/07/01 01:01:22;;;;;;;;;;;16.30;83.20;;;;;;5032315;28;19924;-83
2022/07/01 01:03:48;;;;;;;;;;;16.30;82.20;;;;;;5013186;28;19917;-83
2022/07/01 01:06:14;;;;;;;;;;;16.30;82.40;;;;;;5030840;28;19959;-83
2022/07/01 01:08:39;;;;;;;;;;;16.40;82.20;;;;;;5033222;28;19916;-83
2022/07/01 01:11:05;;;;;;;;;;;16.30;82.40;;;;;;5031904;28;19917;-82
2022/07/01 01:13:30;;;;;;;;;;;16.20;82.70;;;;;;5032496;28;19913;-83
2022/07/01 01:15:56;;;;;;;;;;;16.20;83.50;;;;;;5032559;28;20134;-82
2022/07/01 01:18:21;;;;;;;;;;;16.30;83.20;;;;;;5030742;28;19917;-83
2022/07/01 01:20:47;;;;;;;;;;;16.40;82.70;;;;;;5014518;28;19935;-84
2022/07/01 01:23:12;;;;;;;;;;;16.40;83.10;;;;;;5015593;28;19920;-83
2022/07/01 01:25:37;;;;;;;;;;;16.40;82.90;;;;;;5031330;28;20321;-84
2022/07/01 01:28:03;;;;;;;;;;;16.30;83.20;;;;;;5028849;28;20310;-83
2022/07/01 01:30:29;;;;;;;;;;;16.20;83.70;;;;;;5015984;28;19920;-84
2022/07/01 01:32:54;;;;;;;;;;;16.20;83.40;;;;;;5014069;28;19915;-83
2022/07/01 01:35:20;;;;;;;;;;;16.10;83.50;;;;;;5016010;28;20335;-84
2022/07/01 01:37:46;;;;;;;;;;;16.10;83.60;;;;;;5010806;28;19917;-84
2022/07/01 01:40:15;;;;;;;;;;;16.10;83.90;;;;;;5030448;28;19913;-83
2022/07/01 01:42:41;;;;;;;;;;;16.10;83.70;;;;;;5023212;28;19913;-83
2022/07/01 01:45:07;;;;;;;;;;;16.10;84.10;;;;;;5030409;28;19971;-83
2022/07/01 01:47:32;;;;;;;;;;;16.10;83.50;;;;;;5033677;28;19921;-83
2022/07/01 01:49:58;;;;;;;;;;;16.10;83.50;;;;;;5032958;28;19913;-84
2022/07/01 01:52:23;;;;;;;;;;;16.10;83.80;;;;;;5008056;28;19937;-83
2022/07/01 01:54:49;;;;;;;;;;;16.00;83.50;;;;;;5012027;28;19928;-84
2022/07/01 01:57:14;;;;;;;;;;;16.00;83.60;;;;;;5028265;28;20315;-82
2022/07/01 01:59:40;;;;;;;;;;;16.00;83.80;;;;;;5014085;28;19913;-83
2022/07/01 02:02:05;;;;;;;;;;;16.00;83.40;;;;;;5021836;28;20353;-83
2022/07/01 02:04:31;;;;;;;;;;;16.00;83.20;;;;;;5032238;28;19924;-83
2022/07/01 02:06:56;;;;;;;;;;;16.00;83.60;;;;;;5032617;28;19917;-83
2022/07/01 02:09:22;;;;;;;;;;;16.00;84.10;;;;;;5022044;28;19989;-82
2022/07/01 02:11:47;;;;;;;;;;;16.00;83.60;;;;;;5032255;28;19920;-84
2022/07/01 02:14:13;;;;;;;;;;;16.00;83.90;;;;;;5026481;28;20295;-83
2022/07/01 02:16:38;;;;;;;;;;;16.00;83.60;;;;;;5031259;28;19920;-83
2022/07/01 02:19:04;;;;;;;;;;;16.00;83.20;;;;;;5028316;28;19960;-83
2022/07/01 02:21:29;;;;;;;;;;;15.90;83.40;;;;;;5031304;28;20004;-83
2022/07/01 02:23:55;;;;;;;;;;;16.00;83.20;;;;;;5014803;28;20329;-82
2022/07/01 02:26:20;;;;;;;;;;;16.00;83.30;;;;;;5033142;28;20239;-83
2022/07/01 02:28:46;;;;;;;;;;;16.00;83.40;;;;;;5011254;28;20300;-82
2022/07/01 02:31:12;;;;;;;;;;;15.80;83.10;;;;;;5020591;28;19921;-83
2022/07/01 02:33:37;;;;;;;;;;;15.70;83.90;;;;;;5029198;28;19948;-82
2022/07/01 02:36:03;;;;;;;;;;;15.70;84.20;;;;;;5014510;28;19913;-84
2022/07/01 02:38:28;;;;;;;;;;;15.60;84.00;;;;;;5021848;28;19921;-84
2022/07/01 02:40:54;;;;;;;;;;;15.70;83.80;;;;;;5016871;28;19999;-84
2022/07/01 02:43:19;;;;;;;;;;;15.70;83.70;;;;;;5015673;28;19975;-83
2022/07/01 02:45:45;;;;;;;;;;;15.70;83.70;;;;;;5028352;28;19944;-83
2022/07/01 02:48:10;;;;;;;;;;;15.70;83.70;;;;;;5016304;28;19942;-82
2022/07/01 02:50:35;;;;;;;;;;;15.80;83.60;;;;;;5020329;28;19940;-83
2022/07/01 02:53:01;;;;;;;;;;;15.80;83.60;;;;;;5018849;28;21744;-83
2022/07/01 02:55:28;;;;;;;;;;;15.90;83.40;;;;;;5016657;28;19913;-83
2022/07/01 02:57:54;;;;;;;;;;;15.80;83.50;;;;;;5008167;28;19913;-82
2022/07/01 03:00:20;;;;;;;;;;;15.80;83.00;;;;;;5010584;28;19914;-82
2022/07/01 03:02:46;;;;;;;;;;;15.80;82.40;;;;;;5026562;28;20000;-82
2022/07/01 03:05:11;;;;;;;;;;;15.80;82.70;;;;;;5024041;28;20008;-83
2022/07/01 03:07:37;;;;;;;;;;;15.70;82.60;;;;;;5008622;28;19913;-82
2022/07/01 03:10:04;;;;;;;;;;;15.60;82.70;;;;;;5029661;28;19913;-84
2022/07/01 03:12:30;;;;;;;;;;;15.60;82.80;;;;;;5033698;28;19917;-83
2022/07/01 03:14:56;;;;;;;;;;;15.60;82.90;;;;;;5030911;28;20399;-83
2022/07/01 03:17:22;;;;;;;;;;;15.60;83.80;;;;;;5020034;28;20292;-82
2022/07/01 03:19:48;;;;;;;;;;;15.60;83.00;;;;;;5007477;28;19921;-82
2022/07/01 03:22:13;;;;;;;;;;;15.70;83.10;;;;;;5028626;28;20295;-82
2022/07/01 03:24:39;;;;;;;;;;;15.70;82.70;;;;;;5026964;28;19967;-82
2022/07/01 03:27:04;;;;;;;;;;;15.60;82.30;;;;;;5028460;28;19917;-83
2022/07/01 03:29:30;;;;;;;;;;;15.60;82.40;;;;;;5008038;28;21424;-83
2022/07/01 03:31:55;;;;;;;;;;;15.70;82.50;;;;;;5028080;28;20351;-82
2022/07/01 03:34:21;;;;;;;;;;;15.60;82.60;;;;;;5009873;28;19975;-83
2022/07/01 03:36:46;;;;;;;;;;;15.60;82.00;;;;;;5022895;28;19924;-83
2022/07/01 03:39:12;;;;;;;;;;;15.60;82.20;;;;;;5022785;28;19913;-81
2022/07/01 03:41:37;;;;;;;;;;;15.60;82.10;;;;;;5025493;28;20058;-81
2022/07/01 03:44:03;;;;;;;;;;;15.60;82.20;;;;;;5021433;28;19967;-82
2022/07/01 03:46:31;;;;;;;;;;;15.50;82.20;;;;;;5030796;28;19913;-82
2022/07/01 03:48:57;;;;;;;;;;;15.50;82.20;;;;;;5031302;28;19913;-82
2022/07/01 03:51:22;;;;;;;;;;;15.50;82.10;;;;;;5003589;28;19913;-83
2022/07/01 03:56:32;;;;;;;;;;;15.40;82.80;;;;;;5029730;28;20407;-82
2022/07/01 03:58:57;;;;;;;;;;;15.40;82.90;;;;;;5010457;28;19960;-83
2022/07/01 04:01:23;;;;;;;;;;;15.50;82.60;;;;;;5030176;28;20370;-83
2022/07/01 04:03:48;;;;;;;;;;;15.40;82.90;;;;;;5013567;28;20340;-82
2022/07/01 04:06:14;;;;;;;;;;;15.50;83.00;;;;;;5031161;28;19917;-82
2022/07/01 04:08:39;;;;;;;;;;;15.50;82.40;;;;;;5018797;28;20009;-82
2022/07/01 04:11:08;;;;;;;;;;;15.50;82.10;;;;;;5016173;28;19941;-82
2022/07/01 04:13:33;;;;;;;;;;;15.50;82.60;;;;;;5015952;28;19918;-80
2022/07/01 04:15:59;;;;;;;;;;;15.50;82.40;;;;;;5032885;28;20237;-83
2022/07/01 04:18:25;;;;;;;;;;;15.50;83.30;;;;;;5008003;28;19918;-82
2022/07/01 04:23:34;;;;;;;;;;;15.50;82.90;;;;;;5032890;28;19978;-83
2022/07/01 04:26:00;;;;;;;;;;;15.50;83.10;;;;;;5017389;28;19969;-83
2022/07/01 04:28:26;;;;;;;;;;;15.50;82.60;;;;;;5030163;28;19917;-82
2022/07/01 04:30:51;;;;;;;;;;;15.60;82.40;;;;;;5029552;28;19991;-81
2022/07/01 04:33:17;;;;;;;;;;;15.70;82.40;;;;;;5012383;28;19933;-83
2022/07/01 04:35:42;;;;;;;;;;;15.60;82.20;;;;;;5030210;28;19992;-82
2022/07/01 04:38:08;;;;;;;;;;;15.60;82.70;;;;;;5016098;28;19939;-81
2022/07/01 04:40:34;;;;;;;;;;;15.70;82.30;;;;;;5024619;28;19909;-82
2022/07/01 04:42:59;;;;;;;;;;;15.60;82.40;;;;;;5015189;28;19913;-81
2022/07/01 04:45:25;;;;;;;;;;;15.70;82.20;;;;;;5034938;28;19917;-82
2022/07/01 04:47:50;;;;;;;;;;;15.60;81.80;;;;;;5012708;28;19933;-81
2022/07/01 04:50:16;;;;;;;;;;;15.50;82.50;;;;;;5012140;28;20355;-81
2022/07/01 04:52:41;;;;;;;;;;;15.60;83.40;;;;;;5034760;28;19917;-82
2022/07/01 04:55:07;;;;;;;;;;;15.60;82.60;;;;;;5016588;28;20039;-82
2022/07/01 04:57:32;;;;;;;;;;;15.60;82.80;;;;;;5037104;28;19967;-81
2022/07/01 04:59:58;;;;;;;;;;;15.60;82.70;;;;;;5030508;28;19976;-83
2022/07/01 05:02:23;;;;;;;;;;;15.60;82.80;;;;;;5023107;28;19921;-82
2022/07/01 05:04:48;;;;;;;;;;;15.80;82.40;;;;;;5024900;28;19921;-81
2022/07/01 05:07:29;;;;;;;;;;;15.70;82.30;;;;;;5031876;28;19921;-82
2022/07/01 05:09:55;;;;;;;;;;;15.70;82.40;;;;;;5012159;28;20309;-81
2022/07/01 05:12:21;;;;;;;;;;;15.70;82.50;;;;;;5010313;28;19921;-81
2022/07/01 05:14:47;;;;;;;;;;;15.80;82.20;;;;;;5013640;28;19947;-81
2022/07/01 05:17:13;;;;;;;;;;;15.80;82.00;;;;;;5025555;28;19957;-83
2022/07/01 05:22:23;;;;;;;;;;;15.80;82.10;;;;;;5026261;28;19920;-80
2022/07/01 05:24:48;;;;;;;;;;;15.80;82.10;;;;;;5026700;28;19921;-82
2022/07/01 05:27:13;;;;;;;;;;;15.90;81.90;;;;;;5010621;28;19953;-80
2022/07/01 05:29:39;;;;;;;;;;;15.90;82.10;;;;;;5030785;28;19917;-82
2022/07/01 05:32:05;;;;;;;;;;;15.90;82.20;;;;;;5033661;28;19913;-80
2022/07/01 05:34:30;;;;;;;;;;;15.90;81.90;;;;;;5025865;28;19972;-82
2022/07/01 05:36:56;;;;;;;;;;;15.80;82.10;;;;;;4999211;28;20415;-81
2022/07/01 05:39:22;;;;;;;;;;;15.90;81.60;;;;;;5008030;28;19917;-83
2022/07/01 05:41:47;;;;;;;;;;;15.90;81.90;;;;;;5011002;28;20382;-82
2022/07/01 05:44:13;;;;;;;;;;;15.90;82.00;;;;;;5007488;28;19917;-83
2022/07/01 05:46:38;;;;;;;;;;;16.00;82.00;;;;;;5007757;28;19920;-80
2022/07/01 05:49:04;;;;;;;;;;;16.00;81.90;;;;;;5023149;28;19971;-80
2022/07/01 05:51:30;;;;;;;;;;;16.00;81.70;;;;;;5026409;28;19913;-81
2022/07/01 05:53:56;;;;;;;;;;;16.00;81.90;;;;;;5028092;28;19925;-82
2022/07/01 05:56:22;;;;;;;;;;;16.00;81.40;;;;;;5027168;28;20437;-80
2022/07/01 05:58:47;;;;;;;;;;;16.00;81.70;;;;;;5032842;28;20395;-81
2022/07/01 06:01:13;;;;;;;;;;;16.10;81.30;;;;;;5013247;28;19913;-80
2022/07/01 06:03:38;;;;;;;;;;;16.10;81.30;;;;;;5028287;28;19939;-79
2022/07/01 06:06:04;;;;;;;;;;;16.10;81.00;;;;;;5029817;28;20346;-81
2022/07/01 06:08:29;;;;;;;;;;;16.00;81.60;;;;;;5029108;28;19921;-82
2022/07/01 06:10:55;;;;;;;;;;;16.00;81.10;;;;;;5011537;28;19944;-81
2022/07/01 06:13:20;;;;;;;;;;;16.00;81.60;;;;;;5013235;28;19997;-82
2022/07/01 06:15:46;;;;;;;;;;;16.00;81.30;;;;;;5033098;28;19910;-83
2022/07/01 06:18:11;;;;;;;;;;;16.00;81.70;;;;;;5028765;28;19925;-83
2022/07/01 06:20:37;;;;;;;;;;;16.10;81.30;;;;;;5030227;28;19948;-82
2022/07/01 06:23:02;;;;;;;;;;;16.20;81.10;;;;;;5013775;28;19921;-84
2022/07/01 06:25:28;;;;;;;;;;;16.30;80.80;;;;;;5014388;28;20030;-83
2022/07/01 06:27:53;;;;;;;;;;;16.30;80.80;;;;;;5034008;28;19913;-83
2022/07/01 06:30:18;;;;;;;;;;;16.40;80.20;;;;;;5033975;28;19917;-81
2022/07/01 06:32:44;;;;;;;;;;;16.40;80.00;;;;;;5034948;28;19913;-81
2022/07/01 06:35:09;;;;;;;;;;;16.40;79.80;;;;;;5023650;28;20345;-83
2022/07/01 06:37:35;;;;;;;;;;;16.30;79.60;;;;;;5030651;28;20025;-83
2022/07/01 06:40:02;;;;;;;;;;;16.30;79.80;;;;;;5014965;28;19980;-80
2022/07/01 06:42:28;;;;;;;;;;;16.30;79.80;;;;;;5032608;28;20022;-81
2022/07/01 06:44:53;;;;;;;;;;;16.40;79.90;;;;;;5015893;28;19961;-82
2022/07/01 06:47:19;;;;;;;;;;;16.40;79.90;;;;;;5014964;28;19917;-81
2022/07/01 06:49:44;;;;;;;;;;;16.50;79.80;;;;;;5030277;28;19963;-80
2022/07/01 06:52:10;;;;;;;;;;;16.50;79.00;;;;;;5014078;28;19913;-82
2022/07/01 06:54:39;;;;;;;;;;;16.50;78.80;;;;;;5013129;28;20595;-84
2022/07/01 06:57:05;;;;;;;;;;;16.50;79.00;;;;;;5019202;28;19901;-83
2022/07/01 06:59:30;;;;;;;;;;;16.50;78.90;;;;;;5021663;28;19917;-82
2022/07/01 07:01:56;;;;;;;;;;;16.60;79.30;;;;;;5032954;28;20351;-83
2022/07/01 07:04:21;;;;;;;;;;;16.70;78.70;;;;;;5013589;28;19928;-82
2022/07/01 07:06:48;;;;;;;;;;;16.90;77.80;;;;;;5031897;28;20491;-82
2022/07/01 07:09:14;;;;;;;;;;;17.00;77.70;;;;;;5019142;28;20359;-83
2022/07/01 07:11:39;;;;;;;;;;;17.10;77.20;;;;;;5018026;28;20348;-84
2022/07/01 07:14:05;;;;;;;;;;;17.30;76.50;;;;;;5033017;28;19921;-83
2022/07/01 07:16:30;;;;;;;;;;;17.50;76.40;;;;;;5031233;28;19909;-83
2022/07/01 07:18:56;;;;;;;;;;;17.60;75.50;;;;;;5010652;28;19945;-81
2022/07/01 07:21:21;;;;;;;;;;;17.60;75.50;;;;;;5026685;28;19909;-82
2022/07/01 07:23:47;;;;;;;;;;;17.80;75.00;;;;;;5012828;28;19921;-82
2022/07/01 07:26:13;;;;;;;;;;;17.80;74.70;;;;;;5008710;28;20409;-81
2022/07/01 07:28:38;;;;;;;;;;;17.70;73.90;;;;;;5032250;28;19945;-81
2022/07/01 07:31:04;;;;;;;;;;;17.60;74.40;;;;;;5031823;28;19925;-81
2022/07/01 07:33:29;;;;;;;;;;;17.60;75.00;;;;;;5015421;28;19971;-81
2022/07/01 07:35:55;;;;;;;;;;;17.50;74.60;;;;;;5035280;28;19952;-82
2022/07/01 07:38:20;;;;;;;;;;;17.40;75.00;;;;;;5012934;28;19957;-83
2022/07/01 07:40:46;;;;;;;;;;;17.40;74.60;;;;;;5008799;28;19913;-80
2022/07/01 07:43:11;;;;;;;;;;;17.30;74.80;;;;;;5003819;28;19929;-81
2022/07/01 07:45:37;;;;;;;;;;;17.30;75.00;;;;;;5029938;28;19988;-80
2022/07/01 07:48:03;;;;;;;;;;;17.30;75.70;;;;;;5027871;28;19913;-79
2022/07/01 07:50:29;;;;;;;;;;;17.30;74.80;;;;;;5027601;28;20918;-79
2022/07/01 07:52:54;;;;;;;;;;;17.40;74.40;;;;;;5011044;28;19996;-79
2022/07/01 07:55:20;;;;;;;;;;;17.50;74.60;;;;;;5028692;28;19913;-79
2022/07/01 07:57:45;;;;;;;;;;;17.70;74.40;;;;;;5030478;28;19920;-80
2022/07/01 08:00:12;;;;;;;;;;;17.90;74.00;;;;;;5018606;28;20302;-79
2022/07/01 08:02:38;;;;;;;;;;;18.10;72.90;;;;;;5015859;28;19928;-78
2022/07/01 08:05:03;;;;;;;;;;;18.10;72.70;;;;;;5032126;28;20414;-79
2022/07/01 08:07:29;;;;;;;;;;;18.20;71.30;;;;;;5033869;28;19917;-80
2022/07/01 08:09:55;;;;;;;;;;;18.20;71.20;;;;;;5017905;28;19917;-80
2022/07/01 08:12:21;;;;;;;;;;;18.20;71.00;;;;;;5035242;28;20564;-83
2022/07/01 08:14:47;;;;;;;;;;;18.50;70.90;;;;;;5038459;28;20000;-83
2022/07/01 08:17:12;;;;;;;;;;;18.50;70.10;;;;;;5024466;28;19948;-83
2022/07/01 08:19:38;;;;;;;;;;;18.40;70.30;;;;;;5046058;28;19913;-83
2022/07/01 08:22:03;;;;;;;;;;;18.50;70.20;;;;;;5027605;28;19913;-83
2022/07/01 08:24:29;;;;;;;;;;;18.60;69.40;;;;;;5040574;28;19917;-83
2022/07/01 08:26:54;;;;;;;;;;;18.60;67.70;;;;;;5036271;28;19913;-83
2022/07/01 08:29:20;;;;;;;;;;;18.60;68.70;;;;;;5015823;28;21005;-80
2022/07/01 08:31:45;;;;;;;;;;;18.50;68.50;;;;;;5035477;28;20001;-79
2022/07/01 08:34:11;;;;;;;;;;;18.30;68.40;;;;;;5019583;28;19960;-80
2022/07/01 08:36:36;;;;;;;;;;;18.30;68.60;;;;;;5018946;28;20273;-81
2022/07/01 08:39:02;;;;;;;;;;;18.30;68.90;;;;;;5038256;28;20823;-81
2022/07/01 08:41:28;;;;;;;;;;;18.30;69.20;;;;;;5020918;28;19948;-81
2022/07/01 08:43:53;;;;;;;;;;;18.40;68.80;;;;;;5035990;28;19928;-81
2022/07/01 08:46:19;;;;;;;;;;;18.40;68.50;;;;;;5018570;28;19925;-82
2022/07/01 08:48:44;;;;;;;;;;;18.40;68.70;;;;;;5022406;28;19932;-80
2022/07/01 08:51:10;;;;;;;;;;;18.30;68.40;;;;;;5039516;28;20399;-81
2022/07/01 08:53:36;;;;;;;;;;;18.40;68.20;;;;;;5023103;28;19939;-81
2022/07/01 08:59:07;;;;;;;;;;;18.40;67.30;;;;;;4996616;28;19921;-81
2022/07/01 09:01:33;;;;;;;;;;;18.50;65.90;;;;;;4982552;28;19918;-81
2022/07/01 09:04:18;;;;;;;;;;;18.40;65.50;;;;;;4988966;28;19917;-79
2022/07/01 09:06:44;;;;;;;;;;;18.30;66.40;;;;;;5034576;28;19921;-79
2022/07/01 09:09:11;;;;;;;;;;;18.30;67.20;;;;;;5033359;28;19913;-79
2022/07/01 09:11:36;;;;;;;;;;;18.50;67.60;;;;;;5018480;28;20230;-80
2022/07/01 09:14:06;;;;;;;;;;;18.80;67.00;;;;;;5018157;28;19917;-79
2022/07/01 09:16:39;;;;;;;;;;;19.00;66.40;;;;;;5034680;28;19917;-81
2022/07/01 09:19:05;;;;;;;;;;;19.20;65.30;;;;;;5015811;28;19929;-83
2022/07/01 09:21:31;;;;;;;;;;;19.20;63.60;;;;;;5019836;28;19909;-81
2022/07/01 09:23:57;;;;;;;;;;;19.20;64.70;;;;;;5012028;28;20032;-81
2022/07/01 09:26:22;;;;;;;;;;;19.20;63.70;;;;;;5024010;28;19920;-82
2022/07/01 09:28:55;;;;;;;;;;;19.20;64.10;;;;;;5029061;28;19917;-80
2022/07/01 09:31:20;;;;;;;;;;;19.20;63.70;;;;;;5029246;28;20308;-79
2022/07/01 09:34:01;;;;;;;;;;;19.20;64.40;;;;;;5030570;28;19984;-79
2022/07/01 09:36:26;;;;;;;;;;;19.30;63.90;;;;;;5011122;28;19945;-80
2022/07/01 09:38:52;;;;;;;;;;;19.40;62.90;;;;;;5013027;28;19924;-79
2022/07/01 09:41:22;;;;;;;;;;;19.50;62.90;;;;;;5032060;28;19985;-78
2022/07/01 09:43:47;;;;;;;;;;;19.50;62.80;;;;;;5033142;28;19917;-79
2022/07/01 09:46:13;;;;;;;;;;;19.60;62.60;;;;;;5022767;28;19920;-81
2022/07/01 09:48:38;;;;;;;;;;;19.80;61.60;;;;;;5018489;28;19913;-80
2022/07/01 09:51:08;;;;;;;;;;;20.00;61.30;;;;;;5011738;28;20390;-79
2022/07/01 09:53:33;;;;;;;;;;;20.40;61.90;;;;;;5010278;28;19921;-80
2022/07/01 09:55:59;;;;;;;;;;;20.60;60.00;;;;;;5007677;28;19936;-80
2022/07/01 09:58:25;;;;;;;;;;;20.50;60.10;;;;;;5027143;28;20019;-79
2022/07/01 10:00:52;;;;;;;;;;;20.20;60.40;;;;;;5034952;28;20016;-79
2022/07/01 10:03:18;;;;;;;;;;;20.00;61.50;;;;;;5013773;28;19920;-80
2022/07/01 10:05:46;;;;;;;;;;;19.90;62.80;;;;;;5025839;28;20004;-79
2022/07/01 10:08:27;;;;;;;;;;;20.10;61.50;;;;;;5013496;28;19929;-80
2022/07/01 10:11:12;;;;;;;;;;;20.20;60.30;;;;;;5021323;28;20004;-80
2022/07/01 10:13:37;;;;;;;;;;;20.30;59.50;;;;;;5010242;28;19966;-77
2022/07/01 10:16:03;;;;;;;;;;;20.30;59.50;;;;;;5017332;28;19952;-79
2022/07/01 10:18:29;;;;;;;;;;;20.30;58.80;;;;;;5015848;28;19917;-81
2022/07/01 10:20:55;;;;;;;;;;;20.40;58.20;;;;;;5009339;28;20027;-80
2022/07/01 10:23:21;;;;;;;;;;;20.50;58.00;;;;;;5023079;28;19913;-79
2022/07/01 10:25:48;;;;;;;;;;;20.60;58.70;;;;;;5024196;28;20410;-80
2022/07/01 10:28:26;;;;;;;;;;;20.70;58.70;;;;;;5007002;28;19913;-79
2022/07/01 10:30:52;;;;;;;;;;;20.60;58.00;;;;;;5018530;28;19943;-79
2022/07/01 10:33:27;;;;;;;;;;;20.40;58.80;;;;;;5031593;28;19967;-80
2022/07/01 10:35:53;;;;;;;;;;;20.20;59.50;;;;;;5008525;28;20436;-80
2022/07/01 10:38:18;;;;;;;;;;;20.10;59.30;;;;;;5029681;28;19968;-79
2022/07/01 10:40:45;;;;;;;;;;;20.30;57.70;;;;;;5031546;28;19966;-80
2022/07/01 10:43:10;;;;;;;;;;;20.40;58.10;;;;;;5002102;28;20012;-80
2022/07/01 10:45:42;;;;;;;;;;;20.40;58.40;;;;;;5030819;28;20031;-80
2022/07/01 10:48:17;;;;;;;;;;;20.30;59.00;;;;;;5027287;28;20527;-80
2022/07/01 10:50:45;;;;;;;;;;;20.40;58.10;;;;;;5022657;28;19913;-80
2022/07/01 10:53:10;;;;;;;;;;;20.20;58.00;;;;;;5014625;28;19920;-80
2022/07/01 10:55:37;;;;;;;;;;;20.20;60.10;;;;;;5014719;28;19913;-80
2022/07/01 10:58:02;;;;;;;;;;;20.30;58.90;;;;;;5028129;28;19958;-82
2022/07/01 11:00:31;;;;;;;;;;;20.20;57.30;;;;;;5030278;28;20008;-83
2022/07/01 11:03:04;;;;;;;;;;;20.30;55.90;;;;;;5008989;28;20400;-83
2022/07/01 11:05:30;;;;;;;;;;;20.30;55.40;;;;;;5012809;28;19917;-81
2022/07/01 11:07:56;;;;;;;;;;;20.30;55.20;;;;;;5015979;28;19940;-81
2022/07/01 11:10:21;;;;;;;;;;;20.30;54.00;;;;;;5009300;28;19928;-80
2022/07/01 11:12:49;;;;;;;;;;;20.40;55.10;;;;;;5031658;28;19991;-81
2022/07/01 11:15:14;;;;;;;;;;;20.50;55.80;;;;;;5032500;28;19936;-80
2022/07/01 11:17:45;;;;;;;;;;;20.70;55.20;;;;;;5013873;28;20431;-80
2022/07/01 11:20:11;;;;;;;;;;;20.90;55.50;;;;;;5016451;28;19951;-82
2022/07/01 11:22:36;;;;;;;;;;;21.00;52.80;;;;;;5038260;28;19913;-81
2022/07/01 11:25:03;;;;;;;;;;;21.00;52.20;;;;;;5032967;28;19928;-80
2022/07/01 11:27:29;;;;;;;;;;;21.00;52.70;;;;;;5013552;28;19913;-80
2022/07/01 11:29:58;;;;;;;;;;;21.00;52.30;;;;;;5028573;28;20001;-80
2022/07/01 11:32:27;;;;;;;;;;;20.80;52.00;;;;;;5031738;28;20000;-81
2022/07/01 11:34:52;;;;;;;;;;;20.80;52.60;;;;;;5034937;28;19967;-80
2022/07/01 11:40:10;;;;;;;;;;;21.20;50.40;;;;;;5036326;28;19916;-81
2022/07/01 11:42:35;;;;;;;;;;;21.40;49.70;;;;;;5017265;28;20019;-80
2022/07/01 11:45:01;;;;;;;;;;;21.60;49.30;;;;;;5035706;28;20399;-80
2022/07/01 11:47:27;;;;;;;;;;;21.40;51.20;;;;;;5017116;28;19913;-81
2022/07/01 11:49:53;;;;;;;;;;;21.50;51.50;;;;;;5016515;28;20413;-79
2022/07/01 11:52:20;;;;;;;;;;;21.40;48.80;;;;;;5032952;28;20417;-81
2022/07/01 11:54:46;;;;;;;;;;;21.20;48.30;;;;;;5034634;28;19913;-81
2022/07/01 11:57:19;;;;;;;;;;;21.20;48.70;;;;;;5034673;28;19971;-80
2022/07/01 11:59:46;;;;;;;;;;;21.20;49.30;;;;;;5029647;28;19921;-80
2022/07/01 12:02:13;;;;;;;;;;;21.00;49.80;;;;;;5001334;28;19913;-82
2022/07/01 12:04:39;;;;;;;;;;;21.00;49.80;;;;;;5035206;28;20366;-80
2022/07/01 12:07:05;;;;;;;;;;;21.10;47.80;;;;;;5034710;28;19932;-80
2022/07/01 12:09:31;;;;;;;;;;;21.10;48.20;;;;;;5016032;28;19914;-79
2022/07/01 12:11:57;;;;;;;;;;;21.10;48.20;;;;;;5033807;28;19924;-82
2022/07/01 12:14:27;;;;;;;;;;;21.20;48.90;;;;;;5037325;28;19945;-81
2022/07/01 12:16:55;;;;;;;;;;;21.40;49.40;;;;;;5029791;28;20338;-80
2022/07/01 12:19:26;;;;;;;;;;;21.50;49.60;;;;;;5015250;28;19944;-81
2022/07/01 12:21:53;;;;;;;;;;;21.70;48.50;;;;;;5019302;28;19924;-81
2022/07/01 12:24:21;;;;;;;;;;;21.80;49.50;;;;;;5034966;28;20004;-81
2022/07/01 12:26:51;;;;;;;;;;;21.80;48.80;;;;;;5024299;28;19936;-80
2022/07/01 12:29:17;;;;;;;;;;;22.00;48.50;;;;;;5019343;28;19913;-80
2022/07/01 12:31:43;;;;;;;;;;;22.10;48.10;;;;;;5020065;28;19929;-79
2022/07/01 12:34:10;;;;;;;;;;;22.10;48.10;;;;;;5017527;28;19920;-80
2022/07/01 12:36:35;;;;;;;;;;;22.30;48.30;;;;;;5018900;28;20299;-81
2022/07/01 12:39:07;;;;;;;;;;;22.50;46.50;;;;;;5035211;28;19928;-80
2022/07/01 12:41:34;;;;;;;;;;;22.40;47.30;;;;;;5036051;28;20305;-81
2022/07/01 12:44:00;;;;;;;;;;;22.20;47.30;;;;;;5030884;28;19940;-81
2022/07/01 12:46:26;;;;;;;;;;;22.10;47.20;;;;;;5009204;28;19948;-81
2022/07/01 12:48:52;;;;;;;;;;;22.10;47.90;;;;;;5017738;28;20261;-81
2022/07/01 12:51:17;;;;;;;;;;;22.00;47.40;;;;;;5030492;28;19923;-80
2022/07/01 12:53:43;;;;;;;;;;;21.70;47.60;;;;;;5042352;28;19952;-80
2022/07/01 12:56:21;;;;;;;;;;;21.60;47.40;;;;;;5013807;28;19919;-79
2022/07/01 12:58:46;;;;;;;;;;;21.60;48.30;;;;;;5025313;28;19917;-79
2022/07/01 13:01:12;;;;;;;;;;;21.70;47.50;;;;;;5033126;28;19917;-80
2022/07/01 13:03:37;;;;;;;;;;;21.60;47.10;;;;;;5014703;28;19913;-80
2022/07/01 13:06:03;;;;;;;;;;;21.80;47.00;;;;;;5015799;28;20291;-78
2022/07/01 13:08:28;;;;;;;;;;;21.70;46.80;;;;;;5015739;28;20388;-77
2022/07/01 13:10:53;;;;;;;;;;;21.60;48.60;;;;;;5012558;28;19987;-80
2022/07/01 13:13:19;;;;;;;;;;;21.50;48.50;;;;;;5014982;28;19916;-80
2022/07/01 13:15:45;;;;;;;;;;;21.50;48.40;;;;;;5033612;28;19913;-81
2022/07/01 13:18:10;;;;;;;;;;;21.70;48.30;;;;;;5018099;28;19910;-80
2022/07/01 13:20:38;;;;;;;;;;;22.10;47.70;;;;;;5020471;28;19971;-80
2022/07/01 13:23:03;;;;;;;;;;;22.30;48.10;;;;;;5015885;28;19913;-78
2022/07/01 13:25:29;;;;;;;;;;;22.50;46.70;;;;;;5027594;28;19931;-81
2022/07/01 13:27:54;;;;;;;;;;;22.30;47.50;;;;;;5021286;28;19991;-79
2022/07/01 13:30:20;;;;;;;;;;;22.20;47.20;;;;;;5028734;28;19993;-78
2022/07/01 13:32:46;;;;;;;;;;;22.20;45.40;;;;;;5014970;28;19913;-78
2022/07/01 13:35:12;;;;;;;;;;;22.20;44.70;;;;;;5034058;28;19928;-78
2022/07/01 13:37:38;;;;;;;;;;;22.00;45.60;;;;;;5025131;28;20364;-79
2022/07/01 13:40:04;;;;;;;;;;;22.10;45.90;;;;;;5011058;28;19917;-79
2022/07/01 13:42:29;;;;;;;;;;;22.10;45.70;;;;;;5005217;28;20558;-80
2022/07/01 13:44:54;;;;;;;;;;;22.10;46.40;;;;;;5030359;28;19972;-80
2022/07/01 13:47:20;;;;;;;;;;;22.10;44.70;;;;;;5011137;28;19924;-81
2022/07/01 13:49:46;;;;;;;;;;;22.10;45.20;;;;;;5016928;28;19913;-79
2022/07/01 13:52:12;;;;;;;;;;;22.00;44.40;;;;;;5032726;28;20481;-80
2022/07/01 13:54:37;;;;;;;;;;;21.90;45.90;;;;;;5030514;28;20333;-80
2022/07/01 13:57:03;;;;;;;;;;;21.70;46.20;;;;;;5029159;28;20013;-82
2022/07/01 13:59:28;;;;;;;;;;;21.60;46.00;;;;;;5016095;28;20000;-81
2022/07/01 14:01:54;;;;;;;;;;;21.50;45.70;;;;;;5034865;28;19968;-81
2022/07/01 14:04:19;;;;;;;;;;;21.60;45.70;;;;;;5034728;28;19925;-82
2022/07/01 14:06:44;;;;;;;;;;;21.50;45.70;;;;;;5012737;28;19917;-81
2022/07/01 14:09:10;;;;;;;;;;;21.50;46.20;;;;;;5037198;28;19925;-81
2022/07/01 14:11:36;;;;;;;;;;;21.50;47.00;;;;;;5035035;28;20234;-82
2022/07/01 14:14:01;;;;;;;;;;;21.50;47.10;;;;;;5033826;28;20012;-79
2022/07/01 14:16:29;;;;;;;;;;;21.80;46.00;;;;;;5012167;28;19913;-77
2022/07/01 14:18:55;;;;;;;;;;;21.90;46.60;;;;;;5028689;28;19921;-80
2022/07/01 14:21:21;;;;;;;;;;;22.10;44.90;;;;;;5030929;28;19936;-80
2022/07/01 14:23:46;;;;;;;;;;;22.00;44.90;;;;;;5018214;28;19917;-80